Blue Oak Ranch Reserve, California Weather observations

Data are for 10 minute period ending at time listed.
 Day   Time   Solar   Ave.   Ave.  Ave.  Vector  Max.   Baro.   Total    
  of    of     Rad.   Air    Rel.  Wind   Wind   Wind  Press.  Precip.   
Year   Day            Temp.  Hum.  Speed  Dir.   Gust                    
2026   (PST)  Kw/m2    F      %     mph   deg.    mph    mb.     in.     
-------------------------------------------------------------------------
 125    8:50   0.09   49.3    82    3.3   261     6.2   948.9    0.00 
 125    9:00   0.08   49.3    84    3.3   261     5.8   949.0    0.00 
 125    9:10   0.10   49.2    86    3.1   270     4.9   949.0    0.00 
 125    9:20   0.10   49.4    88    3.7   275     5.8   949.0    0.00 
 125    9:30   0.15   49.4    89    4.1   284     5.6   949.0    0.00 
 125    9:40   0.19   50.0    91    3.8   268     7.1   949.1    0.00 
 125    9:50   0.16   49.3    91    2.5   238     5.3   949.2    0.00 
 125   10:00   0.21   49.7    92    3.5   267     6.8   949.3    0.00 
 125   10:10   0.20   49.8    92    6.1   282    10.5   949.4    0.00 
 125   10:20   0.21   49.5    92    6.7   289    10.0   949.5    0.00 
 125   10:30   0.22   49.6    92    5.2   286     8.5   949.5    0.00 
 125   10:40   0.25   49.7    92    5.3   283     8.5   949.5    0.00 
 125   10:50   0.27   50.3    90    4.7   288     9.0   949.5    0.00 
 125   11:00   0.13   50.2    89    4.9   286    10.5   949.6    0.00 
 125   11:10   0.26   50.3    90    4.8   290     9.6   949.7    0.00 
 125   11:20   0.30   50.9    87    5.7   284    10.7   949.7    0.00 
 125   11:30   0.27   51.6    84    6.7   292    10.8   949.7    0.00 
 125   11:40   0.28   51.4    84    6.9   284    12.1   949.8    0.00 
 125   11:50   0.39   52.4    80    6.1   290    13.2   949.8    0.00 
 125   12:00   0.23   52.2    79    4.7   306     8.3   949.8    0.00 
 125   12:10   0.21   51.8    80    5.7   306     9.3   949.7    0.00 
 125   12:20   0.29   52.4    80    6.3   279    10.2   949.7    0.00 
 125   12:30   0.27   53.0    78    5.7   291     9.6   949.6    0.00 
 125   12:40   0.37   53.1    78    5.8   292    10.0   949.6    0.00 
 125   12:50   0.35   53.3    76    6.3   302    12.0   949.6    0.00 
 125   13:00   0.35   53.5    76    5.7   295    11.2   949.6    0.00 
 125   13:10   0.36   54.1    74    4.3   298     7.7   949.6    0.00 
 125   13:20   0.31   54.6    73    3.7   304     7.3   949.7    0.00 
 125   13:30   0.18   54.0    74    5.8   303     9.6   949.6    0.00 
 125   13:40   0.14   53.7    75    5.4   289     8.9   949.5    0.00 
 125   13:50   0.14   53.8    76    5.6   286     9.8   949.5    0.00 
 125   14:00   0.14   53.9    77    6.6   284     9.8   949.5    0.00 
 125   14:10   0.16   53.6    77    5.8   278     9.6   949.5    0.00 
 125   14:20   0.14   53.8    77    4.8   280     7.7   949.4    0.00 
 125   14:30   0.14   53.8    77    4.5   287     6.8   949.4    0.00 
 125   14:40   0.12   53.6    78    5.2   294     8.3   949.3    0.00 
 125   14:50   0.16   53.7    77    5.0   286     7.5   949.4    0.00 
 125   15:00   0.16   54.1    76    4.7   285     7.7   949.4    0.00 
 125   15:10   0.16   53.6    77    4.1   271     7.2   949.4    0.00 
 125   15:20   0.12   54.0    77    3.8   272     7.5   949.4    0.00 
 125   15:30   0.12   54.2    76    2.9   272     5.8   949.4    0.00 
 125   15:40   0.12   54.1    76    4.5   276     6.7   949.3    0.00 
 125   15:50   0.10   53.9    77    3.4   260     5.7   949.3    0.00 
 125   16:00   0.10   53.7    78    3.2   283     5.6   949.3    0.00 
 125   16:10   0.08   53.7    78    2.3   308     4.8   949.3    0.00 
 125   16:20   0.09   53.3    78    3.6   296     6.4   949.4    0.00 
 125   16:30   0.08   53.5    78    2.8   324     4.8   949.4    0.00 
 125   16:40   0.07   53.5    78    2.5   288     5.8   949.5    0.00 
 125   16:50   0.06   53.4    78    3.2   306     5.5   949.6    0.00 
 125   17:00   0.06   53.2    79    2.2   265     3.5   949.6    0.00 
 125   17:10   0.05   53.4    79    3.0   294     4.7   949.5    0.00 
 125   17:20   0.05   53.2    79    2.7   307     4.1   949.6    0.00 
 125   17:30   0.04   53.2    79    2.2   303     4.9   949.7    0.00 
 125   17:40   0.03   53.3    80    2.1   291     3.9   949.7    0.00 
 125   17:50   0.02   53.2    80    3.1   286     4.9   949.6    0.00 
 125   18:00   0.02   53.0    81    1.9   299     3.0   949.5    0.00 
 125   18:10   0.02   52.9    82    2.4   287     4.1   949.5    0.00 
 125   18:20   0.02   52.8    83    4.2   282     6.0   949.5    0.00 
 125   18:30   0.02   52.6    83    4.3   285     6.7   949.5    0.00 
 125   18:40   0.01   52.2    85    3.3   295     7.5   949.6    0.00 
 125   18:50   0.01   52.0    86    4.5   295     7.2   949.6    0.00 
 125   19:00   0.00   51.7    86    3.7   324     6.9   949.7    0.00 
 125   19:10   0.00   51.5    86    5.5   295     8.0   949.8    0.00 
 125   19:20   0.00   51.4    87    4.1   299     6.9   950.0    0.00 
 125   19:30   0.00   51.4    86    2.0   323     3.9   950.0    0.00 
 125   19:40   0.00   51.4    86    0.7   350     2.1   950.3    0.00 
 125   19:50   0.00   51.4    86    1.3   343     3.5   950.3    0.00 
 125   20:00   0.00   51.4    86    0.3   287     2.0   950.4    0.00 
 125   20:10   0.00   51.4    86    0.5   325     1.6   950.5    0.00 
 125   20:20   0.00   51.4    86    0.0   351     1.3   950.7    0.00 
 125   20:30   0.00   51.4    86    1.1   304     2.0   950.7    0.00 
 125   20:40   0.00   51.2    87    1.8   324     3.1   950.7    0.00 
 125   20:50   0.00   51.1    86    2.2   320     3.1   950.8    0.00 
 125   21:00   0.00   51.1    86    1.7   314     2.8   950.9    0.00 
 125   21:10   0.00   50.9    88    0.5   196     1.4   951.0    0.00 
 125   21:20   0.00   50.6    88    0.7   283     2.0   951.1    0.00 
 125   21:30   0.00   50.4    89    1.2   332     2.3   951.1    0.00 
 125   21:40   0.00   50.0    89    0.7   105     2.1   951.2    0.00 
 125   21:50   0.00   49.7    90    1.4    60     2.7   951.2    0.00 
 125   22:00   0.00   49.4    91    0.3   355     1.8   951.2    0.00 
 125   22:10   0.00   49.0    91    0.4    54     1.3   951.3    0.00 
 125   22:20   0.00   48.8    92    0.2   288     1.5   951.4    0.00 
 125   22:30   0.00   48.7    92    0.2    31     1.1   951.4    0.00 
 125   22:40   0.00   48.7    92    0.6   302     1.6   951.5    0.00 
 125   22:50   0.00   49.0    92    1.7   294     2.6   951.6    0.00 
 125   23:00   0.00   49.2    92    0.4    17     2.0   951.6    0.00 
 125   23:10   0.00   49.1    93    1.0    15     2.0   951.7    0.00 
 125   23:20   0.00   48.8    92    0.5    86     2.3   951.8    0.00 
 125   23:30   0.00   48.3    92    1.0   346     2.3   951.8    0.00 
 125   23:40   0.00   47.6    92    0.1   104     0.7   951.9    0.00 
 125   23:50   0.00   46.9    92    0.2   281     1.9   951.9    0.00 
 126    0:00   0.00   46.4    93    0.5   302     2.3   952.1    0.00 
 126    0:10   0.00   45.7    93    0.4     6     1.4   952.1    0.00 
 126    0:20   0.00   45.2    93    1.0    38     2.0   952.1    0.00 
 126    0:30   0.00   44.7    93    0.5    72     2.0   952.2    0.00 
 126    0:40   0.00   44.7    94    0.8   307     2.0   952.1    0.00 
 126    0:50   0.00   44.4    94    0.3   304     1.2   952.0    0.00 
 126    1:00   0.00   44.3    94    0.3   302     1.2   952.0    0.00 
 126    1:10   0.00   43.6    94    2.5   271     3.3   952.0    0.00 
 126    1:20   0.00   43.6    94    2.1   286     2.8   952.0    0.00 
 126    1:30   0.00   43.5    94    1.4    59     2.6   951.9    0.00 
 126    1:40   0.00   43.5    95    1.5   280     3.1   951.9    0.00 
 126    1:50   0.00   44.2    95    1.3    36     3.0   952.0    0.00 
 126    2:00   0.00   44.7    95    1.2    68     3.1   952.0    0.00 
 126    2:10   0.00   45.3    95    0.6    34     1.5   952.0    0.00 
 126    2:20   0.00   45.7    95    0.0    67     0.6   952.0    0.00 
 126    2:30   0.00   45.8    95    0.0    34     1.0   952.1    0.00 
 126    2:40   0.00   46.2    95    1.0    69     2.0   952.1    0.00 
 126    2:50   0.00   46.5    95    1.2    62     2.4   952.2    0.00 
 126    3:00   0.00   46.9    95    0.9    76     1.9   952.2    0.00 
 126    3:10   0.00   47.3    95    0.1    66     2.0   952.2    0.00 
 126    3:20   0.00   47.5    95    0.2   331     1.2   952.2    0.00 
 126    3:30   0.00   47.3    95    0.5     6     2.0   952.3    0.00 
 126    3:40   0.00   46.8    95    0.4    96     1.1   952.3    0.00 
 126    3:50   0.00   46.1    95    0.1    59     0.8   952.3    0.00 
 126    4:00   0.00   45.6    95    0.1   149     0.9   952.4    0.00 
 126    4:10   0.00   45.6    95    0.6   257     2.0   952.4    0.00 
 126    4:20   0.00   45.0    95    0.6   297     2.6   952.6    0.00 
 126    4:30   0.00   45.0    95    0.3    17     1.4   952.5    0.00 
 126    4:40   0.00   45.5    96    0.1    62     1.8   952.5    0.00 
 126    4:50   0.00   45.9    95    0.4    55     1.6   952.6    0.00 
 126    5:00   0.00   46.2    95    0.1   264     1.1   952.7    0.00 
 126    5:10   0.00   46.5    96    0.2   271     1.4   952.7    0.00 
 126    5:20   0.01   46.5    95    0.8   101     1.8   952.8    0.00 
 126    5:30   0.01   46.5    96    0.7    82     2.0   952.9    0.00 
 126    5:40   0.02   46.9    95    1.1    64     1.8   953.0    0.00 
 126    5:50   0.03   47.2    95    1.6    48     3.9   953.1    0.00 
 126    6:00   0.05   47.4    95    1.7    67     3.7   953.3    0.00 
 126    6:10   0.07   47.4    95    2.3    72     4.0   953.4    0.00 
 126    6:20   0.10   47.7    95    1.7    72     3.6   953.5    0.00 
 126    6:30   0.10   48.0    95    1.3    77     2.8   953.6    0.00 
 126    6:40   0.14   48.6    95    1.1    89     2.6   953.6    0.00 
 126    6:50   0.15   49.3    94    0.7   109     2.2   953.6    0.00 
 126    7:00   0.17   49.9    93    0.3   121     1.6   953.6    0.00 
 126    7:10   0.18   50.9    92    0.4   253     2.3   953.6    0.00 
 126    7:20   0.20   51.4    87    0.3   230     1.2   953.6    0.00 
 126    7:30   0.20   51.6    86    1.4   161     2.6   953.6    0.00 
 126    7:40   0.27   52.0    84    0.5    42     2.5   953.6    0.00 
 126    7:50   0.37   54.0    79    1.1    85     2.5   953.6    0.00 
 126    8:00   0.56   56.6    75    1.7   126     7.0   953.6    0.00 
 126    8:10   0.61   58.3    72    3.0   264     5.6   953.6    0.00 
 126    8:20   0.54   58.6    70    3.2   266     5.6   953.7    0.00 
 126    8:30   0.29   58.0    72    2.8   268     7.0   953.7    0.00 
 126    8:40   0.26   56.9    75    4.6   258     7.3   953.7    0.00 

Return to Blue Oak Ranch Reserve graphs page.


Western Regional Climate Center,wrcc@dri.edu